KCEW/CEW METAR and TAF weather

Enter ICAO airport designator
Station Type Date Time Source
KCEW METAR 2022/01/23 12:53 UTC NOAA

KCEW 231253Z AUTO 00000KT 10SM CLR M05/M07 A3025 RMK AO2 SLP245 T10501067


Station Type Date Time Source
KCEW Decoded METAR 2022/01/23 12:53 UTC NOAA

CRESTVIEW SIKES AIRPORT, FL, United States (KCEW) 30-46N 086-31W 55M
Jan 23, 2022 - 07:53 AM EST / 2022.01.23 1253 UTC
Wind: Calm:0
Visibility: 10 mile(s):0
Sky conditions: clear
Temperature: 23.0 F (-5.0 C)
Dew Point: 19.9 F (-6.7 C)
Relative Humidity: 87%
Pressure (altimeter): 30.25 in. Hg (1024 hPa)
ob: KCEW 231253Z AUTO 00000KT 10SM CLR M05/M07 A3025 RMK AO2 SLP245 T10501067
cycle: 13

Station Type Date Time Source
KCEW TAF UTC NOAA

Error!

Example: see airport list